Shinkyo Maru No.3 — JD3397 — position and weather

sailwx.info

Track history (hours):
 
Tides and Currents Weather Stations Pressure Air Temp Water Temp Dewpoint Dewpoint Depression Visibility Wind Speed Wind Dir Waves Ship Positions

Shinkyo Maru No.3

Last reported at 2018-Feb-23 11:45 UTC. Time now 2018-Feb-23 12:29 UTC.
Position N 34°43' E 134°51'.

Length 55 m; draft 3 m.

Type: Cargo ship. MMSI: 431003752.

Date/timePositionNaut miles runAvg speedWind from/ knotsBaromVisibWave heightAir tempDewpointWater temp
2018-Feb-23 11:45N 34°43' E 134°51'0 0.0
2018-Feb-23 11:16N 34°43' E 134°51'0 0.0
2018-Feb-23 10:59N 34°43' E 134°51'0 0.0
2018-Feb-23 10:27N 34°43' E 134°51'0 0.0
2018-Feb-23 09:45N 34°43' E 134°51'0 0.0
2018-Feb-23 09:20N 34°43' E 134°51'0 0.0
2018-Feb-23 08:54N 34°43' E 134°51'0 0.0
2018-Feb-23 08:27N 34°43' E 134°51'0 0.0
2018-Feb-23 07:59N 34°43' E 134°51'0 0.0
2018-Feb-23 07:28N 34°43' E 134°51'0 0.0
2018-Feb-23 06:58N 34°43' E 134°51'0 0.0
2018-Feb-23 06:29N 34°43' E 134°51'0 0.0
2018-Feb-23 05:55N 34°43' E 134°51'3 6.3
2018-Feb-23 05:30N 34°40' E 134°50'611.4
2018-Feb-23 05:00N 34°38' E 134°57'612.5
2018-Feb-23 04:30N 34°36' E 135°04'611.2
2018-Feb-23 04:01N 34°37' E 135°11'510.9
2018-Feb-23 03:30N 34°38' E 135°17'510.2
2018-Feb-23 03:01N 34°38' E 135°24'2 3.7
2018-Feb-23 02:30N 34°37' E 135°26'0 0.1
2018-Feb-23 02:01N 34°37' E 135°26'0 0.1
2018-Feb-23 01:31N 34°37' E 135°26'0 0.0
2018-Feb-23 01:01N 34°37' E 135°26'0 0.1
2018-Feb-23 00:30N 34°37' E 135°26'0 0.1
2018-Feb-23 00:00N 34°37' E 135°26'0 0.0
2018-Feb-22 23:30N 34°37' E 135°26'0 0.0
2018-Feb-22 23:00N 34°37' E 135°26'0 0.0
2018-Feb-22 22:31N 34°37' E 135°26'0 0.0
2018-Feb-22 22:00N 34°37' E 135°26'0 0.0
2018-Feb-22 21:31N 34°37' E 135°26'0 0.1
2018-Feb-22 21:01N 34°37' E 135°26'2 4.5
2018-Feb-22 20:30N 34°38' E 135°23'5 9.9
2018-Feb-22 20:01N 34°38' E 135°17'4 8.1
2018-Feb-22 19:30N 34°42' E 135°15'0 0.1
2018-Feb-22 19:00N 34°42' E 135°15'0 0.0
2018-Feb-22 18:31N 34°42' E 135°15'0 0.0
2018-Feb-22 18:00N 34°42' E 135°15'0 0.0
2018-Feb-22 17:30N 34°42' E 135°15'0 0.0
2018-Feb-22 17:00N 34°42' E 135°15'0 0.0
2018-Feb-22 16:31N 34°42' E 135°15'0 0.0
2018-Feb-22 16:01N 34°42' E 135°15'0 0.0
2018-Feb-22 15:30N 34°42' E 135°15'0 0.0
2018-Feb-22 15:00N 34°42' E 135°15'0 0.0
2018-Feb-22 14:31N 34°42' E 135°15'0 0.0
2018-Feb-22 14:01N 34°42' E 135°15'0 0.0
2018-Feb-22 13:30N 34°42' E 135°15'0 0.0
2018-Feb-22 13:00N 34°42' E 135°15'0 0.0
2018-Feb-22 12:30N 34°42' E 135°15'0 0.0
2018-Feb-22 12:01N 34°42' E 135°15'0 0.0
2018-Feb-22 11:31N 34°42' E 135°15'0 0.0
2018-Feb-22 11:01N 34°42' E 135°15'0 0.0
2018-Feb-22 10:31N 34°42' E 135°15'0 0.0
2018-Feb-22 10:01N 34°42' E 135°15'0 0.0
2018-Feb-22 09:31N 34°42' E 135°15'0 0.0
2018-Feb-22 09:01N 34°42' E 135°15'0 0.0
2018-Feb-22 08:31N 34°42' E 135°15'0 0.2
2018-Feb-22 08:00N 34°42' E 135°15'0 0.0
2018-Feb-22 07:30N 34°42' E 135°15'0 0.0
2018-Feb-22 07:01N 34°42' E 135°15'0 0.0
2018-Feb-22 06:30N 34°42' E 135°15'0 0.0
2018-Feb-22 06:01N 34°42' E 135°15'0 0.0
2018-Feb-22 05:30N 34°42' E 135°15'0 0.0
2018-Feb-22 05:00N 34°42' E 135°15'0 0.0
2018-Feb-22 04:31N 34°42' E 135°15'0 0.0
2018-Feb-22 04:01N 34°42' E 135°15'0 0.0
2018-Feb-22 03:30N 34°42' E 135°15'0 0.0
2018-Feb-22 03:00N 34°42' E 135°15'0 0.0
2018-Feb-22 02:30N 34°42' E 135°15'0 0.0
2018-Feb-22 02:00N 34°42' E 135°15'0 0.0
2018-Feb-22 01:31N 34°42' E 135°15'0 0.0
2018-Feb-22 01:00N 34°42' E 135°15'0 0.0
2018-Feb-22 00:31N 34°42' E 135°15'0 0.0
2018-Feb-22 00:00N 34°42' E 135°15'0 0.0
2018-Feb-21 23:30N 34°42' E 135°15'0 0.5
2018-Feb-21 23:00N 34°42' E 135°15'1 1.7
2018-Feb-21 22:31N 34°41' E 135°15'0 0.0
2018-Feb-21 22:01N 34°41' E 135°15'0 0.0
2018-Feb-21 21:31N 34°41' E 135°15'0 0.1
2018-Feb-21 20:59N 34°41' E 135°15'3 5.3
2018-Feb-21 20:30N 34°39' E 135°16'5 9.8
2018-Feb-21 20:00N 34°36' E 135°11'510.4
2018-Feb-21 19:30N 34°35' E 135°04'611.8
2018-Feb-21 19:00N 34°37' E 134°58'611.0
2018-Feb-21 18:30N 34°39' E 134°51'5 1.1
2018-Feb-21 13:27N 34°44' E 134°49'2 4.2
2018-Feb-21 13:00N 34°42' E 134°48'1 2.9
2018-Feb-21 12:30N 34°42' E 134°50'0 0.0
2018-Feb-21 11:58N 34°42' E 134°50'0 0.0
2018-Feb-21 11:29N 34°42' E 134°50'0 0.6
2018-Feb-21 11:00N 34°42' E 134°50'5 9.4
2018-Feb-21 10:30N 34°38' E 134°53'510.7
2018-Feb-21 10:00N 34°38' E 134°60'4 8.7
2018-Feb-21 09:30N 34°36' E 135°05'611.6
2018-Feb-21 09:01N 34°37' E 135°12'611.7
2018-Feb-21 08:30N 34°38' E 135°19'611.1
2018-Feb-21 08:00N 34°37' E 135°25'0 1.0
2018-Feb-21 07:30N 34°37' E 135°26'0 0.0
2018-Feb-21 07:00N 34°37' E 135°26'0 0.0
2018-Feb-21 06:30N 34°37' E 135°26'0 0.0
2018-Feb-21 06:01N 34°37' E 135°26'0 0.0
2018-Feb-21 05:30N 34°37' E 135°26'0 0.0
2018-Feb-21 05:01N 34°37' E 135°26'0 0.0
2018-Feb-21 04:31N 34°37' E 135°26'0 0.0
2018-Feb-21 04:01N 34°37' E 135°26'0 0.0
2018-Feb-21 03:31N 34°37' E 135°26'0 0.0
2018-Feb-21 03:01N 34°37' E 135°26'0 0.0
2018-Feb-21 02:30N 34°37' E 135°26'0 0.0
2018-Feb-21 02:01N 34°37' E 135°26'0 0.0
2018-Feb-21 01:31N 34°37' E 135°26'0 0.0
2018-Feb-21 01:01N 34°37' E 135°26'0 0.0
2018-Feb-21 00:30N 34°37' E 135°26'0 0.1
2018-Feb-21 00:00N 34°37' E 135°26'0 0.1
2018-Feb-20 23:30N 34°37' E 135°26'0 0.0
2018-Feb-20 23:01N 34°37' E 135°26'0 0.0
2018-Feb-20 22:31N 34°37' E 135°26'0 0.0
2018-Feb-20 22:00N 34°37' E 135°26'0 0.1
2018-Feb-20 21:31N 34°37' E 135°26'0 0.1
2018-Feb-20 21:00N 34°37' E 135°26'0 0.0
2018-Feb-20 20:31N 34°37' E 135°26'0 0.0
2018-Feb-20 20:01N 34°37' E 135°26'0 0.0
2018-Feb-20 19:31N 34°37' E 135°26'0 0.0
2018-Feb-20 19:00N 34°37' E 135°26'0 0.0
2018-Feb-20 18:31N 34°37' E 135°26'0 0.0
2018-Feb-20 18:00N 34°37' E 135°26'1 1.9
2018-Feb-20 17:30N 34°37' E 135°25'510.7
2018-Feb-20 17:00N 34°40' E 135°19'4 7.4
2018-Feb-20 16:31N 34°42' E 135°15'0 0.1
2018-Feb-20 16:00N 34°42' E 135°15'0 0.0
2018-Feb-20 15:30N 34°42' E 135°15'0 0.0
2018-Feb-20 15:01N 34°42' E 135°15'0 0.0
2018-Feb-20 14:30N 34°42' E 135°15'0 0.0
2018-Feb-20 14:00N 34°42' E 135°15'0 0.0
2018-Feb-20 13:30N 34°42' E 135°15'0 0.0
2018-Feb-20 13:01N 34°42' E 135°15'0 0.4
2018-Feb-20 12:30N 34°42' E 135°15'0 0.0
2018-Feb-20 12:00N 34°42' E 135°15'0 0.0
2018-Feb-20 11:30N 34°42' E 135°15'0 0.0
2018-Feb-20 11:00N 34°42' E 135°15'0 0.0
2018-Feb-20 10:31N 34°42' E 135°15'0 0.1
2018-Feb-20 10:01N 34°42' E 135°15'0 0.1
2018-Feb-20 09:31N 34°42' E 135°15'0 0.0
2018-Feb-20 09:00N 34°42' E 135°15'0 0.0
2018-Feb-20 08:31N 34°42' E 135°15'0 0.0
2018-Feb-20 08:00N 34°42' E 135°15'0 0.0
2018-Feb-20 07:30N 34°42' E 135°15'0 0.0
2018-Feb-20 07:01N 34°42' E 135°15'0 0.0
2018-Feb-20 06:31N 34°42' E 135°15'0 0.0
2018-Feb-20 06:00N 34°42' E 135°15'0 0.0
2018-Feb-20 05:30N 34°42' E 135°15'0 0.0
2018-Feb-20 05:01N 34°42' E 135°15'0 0.0
2018-Feb-20 04:30N 34°42' E 135°15'0 0.0
2018-Feb-20 04:01N 34°42' E 135°15'0 0.0
2018-Feb-20 03:30N 34°42' E 135°15'0 0.0
2018-Feb-20 03:00N 34°42' E 135°15'0 0.0
2018-Feb-20 02:31N 34°42' E 135°15'0 0.0
2018-Feb-20 02:00N 34°42' E 135°15'0 0.0
2018-Feb-20 01:30N 34°42' E 135°15'0 0.0
2018-Feb-20 01:00N 34°42' E 135°15'0 0.0
2018-Feb-20 00:31N 34°42' E 135°15'0 0.0
2018-Feb-20 00:01N 34°42' E 135°15'0 0.4
2018-Feb-19 23:31N 34°42' E 135°15'4 8.5
2018-Feb-19 23:00N 34°38' E 135°15'510.5
2018-Feb-19 22:30N 34°36' E 135°09'611.0
2018-Feb-19 22:00N 34°36' E 135°02'611.6
2018-Feb-19 21:31N 34°37' E 134°55'611.5
2018-Feb-19 21:00N 34°40' E 134°49'3 0.6
2018-Feb-19 15:22N 34°44' E 134°49'1 3.7
2018-Feb-19 15:00N 34°42' E 134°48'3 2.6
2018-Feb-19 14:01N 34°43' E 134°51'0 0.0
2018-Feb-19 13:59N 34°43' E 134°51'0 0.0
2018-Feb-19 13:30N 34°43' E 134°51'0 0.0
2018-Feb-19 13:00N 34°43' E 134°51'0 0.0
2018-Feb-19 12:27N 34°43' E 134°51'0 0.0
2018-Feb-19 11:58N 34°43' E 134°51'0 0.0
2018-Feb-19 11:30N 34°43' E 134°51'0 0.0
2018-Feb-19 10:59N 34°43' E 134°51'0 0.0
2018-Feb-19 10:30N 34°43' E 134°51'0 0.0
2018-Feb-19 10:00N 34°43' E 134°51'0 0.0
2018-Feb-19 09:29N 34°43' E 134°51'0 0.0
2018-Feb-19 09:00N 34°43' E 134°51'0 0.0
2018-Feb-19 08:20N 34°43' E 134°51'0 0.0
2018-Feb-19 07:59N 34°43' E 134°51'0 0.0
2018-Feb-19 07:30N 34°43' E 134°51'0 0.0
2018-Feb-19 06:59N 34°43' E 134°51'0 0.0
2018-Feb-19 06:30N 34°43' E 134°51'0 0.0
2018-Feb-19 06:00N 34°43' E 134°51'3 6.2
2018-Feb-19 05:30N 34°39' E 134°51'5 9.5
2018-Feb-19 05:00N 34°38' E 134°57'611.4
2018-Feb-19 04:31N 34°36' E 135°03'611.5
2018-Feb-19 04:01N 34°37' E 135°10'612.0
2018-Feb-19 03:31N 34°38' E 135°18'611.7
2018-Feb-19 03:01N 34°41' E 135°23'1 1.7
2018-Feb-19 02:30N 34°42' E 135°24'0 0.0
2018-Feb-19 02:00N 34°42' E 135°24'0 0.0
2018-Feb-19 01:30N 34°42' E 135°24'0 0.0
2018-Feb-19 01:01N 34°42' E 135°24'0 0.0
2018-Feb-19 00:31N 34°42' E 135°24'0 0.0
2018-Feb-19 00:01N 34°42' E 135°24'0 0.0
2018-Feb-18 23:30N 34°42' E 135°24'0 0.0
2018-Feb-18 23:00N 34°42' E 135°24'0 0.0
2018-Feb-18 22:31N 34°42' E 135°24'0 0.9
2018-Feb-18 22:01N 34°42' E 135°24'4 8.2
2018-Feb-18 21:30N 34°39' E 135°20'510.5
2018-Feb-18 21:00N 34°37' E 135°14'510.7
2018-Feb-18 20:30N 34°36' E 135°08'612.0
2018-Feb-18 20:00N 34°37' E 135°01'612.6
2018-Feb-18 19:30N 34°38' E 134°53'611.6
2018-Feb-18 19:00N 34°42' E 134°48'1 0.1
2018-Feb-18 12:14N 34°43' E 134°48'2 8.7
2018-Feb-18 12:01N 34°41' E 134°49'3 5.3
2018-Feb-18 11:30N 34°43' E 134°51'0 0.0
2018-Feb-18 11:00N 34°43' E 134°51'0 0.0
2018-Feb-18 10:30N 34°43' E 134°51'0 0.0
2018-Feb-18 10:00N 34°43' E 134°51'0 0.0
2018-Feb-18 09:27N 34°43' E 134°51'0 0.0
2018-Feb-18 09:00N 34°43' E 134°51'0 0.0
2018-Feb-18 08:30N 34°43' E 134°51'0 0.0
2018-Feb-18 08:00N 34°43' E 134°51'0 0.0
2018-Feb-18 07:30N 34°43' E 134°51'0 0.0
2018-Feb-18 07:00N 34°43' E 134°51'0 0.0
2018-Feb-18 06:29N 34°43' E 134°51'0 0.0
2018-Feb-18 06:00N 34°43' E 134°51'0 0.0
2018-Feb-18 05:30N 34°43' E 134°51'0 0.0
2018-Feb-18 05:00N 34°43' E 134°51'0 0.0
2018-Feb-18 04:30N 34°43' E 134°51'0 0.0
2018-Feb-18 03:57N 34°43' E 134°51'0 0.6
2018-Feb-18 03:31N 34°43' E 134°51'4 7.6
2018-Feb-18 03:00N 34°39' E 134°52'612.6
2018-Feb-18 02:31N 34°38' E 134°60'612.2
2018-Feb-18 02:01N 34°37' E 135°07'612.1
2018-Feb-18 01:31N 34°39' E 135°14'4 7.3
2018-Feb-18 01:01N 34°42' E 135°15'0 0.0
2018-Feb-18 00:31N 34°42' E 135°15'0 0.0
2018-Feb-18 00:01N 34°42' E 135°15'0 0.0
2018-Feb-17 23:30N 34°42' E 135°15'0 0.0
2018-Feb-17 22:59N 34°42' E 135°15'0 0.1
2018-Feb-17 22:30N 34°42' E 135°15'2 4.1
2018-Feb-17 22:00N 34°42' E 135°13'0 0.0
2018-Feb-17 21:30N 34°42' E 135°13'0 0.0
2018-Feb-17 20:59N 34°42' E 135°13'0 0.0
2018-Feb-17 20:30N 34°42' E 135°13'0 0.0
2018-Feb-17 20:01N 34°42' E 135°13'0 0.0
2018-Feb-17 19:31N 34°42' E 135°13'0 0.0
2018-Feb-17 19:00N 34°42' E 135°13'0 0.0
2018-Feb-17 18:30N 34°42' E 135°13'0 0.0
2018-Feb-17 18:01N 34°41' E 135°13'0 0.0
2018-Feb-17 17:31N 34°42' E 135°13'0 0.0
2018-Feb-17 17:00N 34°42' E 135°13'0 0.0
2018-Feb-17 16:31N 34°42' E 135°13'0 0.0
2018-Feb-17 16:00N 34°42' E 135°13'0 0.0
2018-Feb-17 15:30N 34°42' E 135°13'0 0.0
2018-Feb-17 15:00N 34°42' E 135°13'0 0.0
2018-Feb-17 14:30N 34°42' E 135°13'0 0.0
2018-Feb-17 14:01N 34°42' E 135°13'0 0.0
2018-Feb-17 13:31N 34°42' E 135°13'0 0.0
2018-Feb-17 13:00N 34°42' E 135°13'0 0.0
2018-Feb-17 12:30N 34°42' E 135°13'0 0.0
2018-Feb-17 12:01N 34°42' E 135°13'0 0.0
2018-Feb-17 11:31N 34°42' E 135°13'0 0.0
2018-Feb-17 11:00N 34°42' E 135°13'0 0.0
2018-Feb-17 10:31N 34°42' E 135°13'0 0.0
2018-Feb-17 10:01N 34°42' E 135°13'0 0.0
2018-Feb-17 09:30N 34°42' E 135°13'0 0.0
2018-Feb-17 09:01N 34°42' E 135°13'0 0.0
2018-Feb-17 08:30N 34°42' E 135°13'0 0.0
2018-Feb-17 08:01N 34°42' E 135°13'0 0.0
2018-Feb-17 07:31N 34°42' E 135°13'0 0.0
2018-Feb-17 07:01N 34°42' E 135°13'0 0.0
2018-Feb-17 06:31N 34°42' E 135°13'0 0.0
2018-Feb-17 06:01N 34°42' E 135°13'0 0.0
2018-Feb-17 05:31N 34°42' E 135°13'0 0.0
2018-Feb-17 05:01N 34°42' E 135°13'0 0.0
2018-Feb-17 04:30N 34°42' E 135°13'0 0.0
2018-Feb-17 04:01N 34°42' E 135°13'0 0.0
2018-Feb-17 03:30N 34°42' E 135°13'0 0.0
2018-Feb-17 03:01N 34°42' E 135°13'0 0.0
2018-Feb-17 02:30N 34°42' E 135°13'0 0.0
2018-Feb-17 02:01N 34°42' E 135°13'0 0.0
2018-Feb-17 01:30N 34°42' E 135°13'0 0.0
2018-Feb-17 01:00N 34°42' E 135°13'0 0.0
2018-Feb-17 00:30N 34°42' E 135°13'2 4.3
2018-Feb-17 00:01N 34°40' E 135°15'3 6.1
2018-Feb-16 23:31N 34°40' E 135°11'1 2.9
2018-Feb-16 23:01N 34°38' E 135°11'3 5.5
2018-Feb-16 22:30N 34°36' E 135°08'4 8.9
2018-Feb-16 22:01N 34°36' E 135°03'4 8.4
2018-Feb-16 21:30N 34°37' E 134°58'5 9.8
2018-Feb-16 21:01N 34°38' E 134°52'6 2.1
2018-Feb-16 18:20N 34°43' E 134°48'2 6.0
2018-Feb-16 18:01N 34°41' E 134°49'2 4.2
2018-Feb-16 17:31N 34°43' E 134°51'0 0.0
2018-Feb-16 17:01N 34°43' E 134°51'0 0.0
2018-Feb-16 16:30N 34°43' E 134°51'0 0.0
2018-Feb-16 15:59N 34°43' E 134°51'0 0.0
2018-Feb-16 15:28N 34°43' E 134°51'0 0.0
2018-Feb-16 15:00N 34°43' E 134°51'0 0.0
2018-Feb-16 14:31N 34°43' E 134°51'0 0.0
2018-Feb-16 14:00N 34°43' E 134°51'0 0.0
2018-Feb-16 13:30N 34°43' E 134°51'0 0.0
2018-Feb-16 12:57N 34°43' E 134°51'0 0.0
2018-Feb-16 12:28N 34°43' E 134°51'0 0.0
2018-Feb-16 12:01N 34°43' E 134°51'0 0.0
2018-Feb-16 11:27N 34°43' E 134°51'0 0.0
2018-Feb-16 10:59N 34°43' E 134°51'0 0.0
2018-Feb-16 10:30N 34°43' E 134°51'0 0.0
2018-Feb-16 09:59N 34°43' E 134°51'0 0.0
2018-Feb-16 09:30N 34°43' E 134°51'0 0.0
2018-Feb-16 09:01N 34°43' E 134°51'2 4.0
2018-Feb-16 08:30N 34°41' E 134°50'510.6
2018-Feb-16 08:00N 34°38' E 134°55'510.6
2018-Feb-16 07:30N 34°37' E 135°02'510.3
2018-Feb-16 07:00N 34°36' E 135°08'611.2
2018-Feb-16 06:30N 34°34' E 135°14'611.3
2018-Feb-16 06:00N 34°33' E 135°21'4 7.6
2018-Feb-16 05:31N 34°31' E 135°25'0 0.0
2018-Feb-15 22:16N 34°31' E 135°25'0 0.1
2018-Feb-15 22:00N 34°31' E 135°25'2 4.8
2018-Feb-15 21:31N 34°33' E 135°23'3 6.0
2018-Feb-15 21:01N 34°33' E 135°19'3 6.3
2018-Feb-15 20:31N 34°34' E 135°15'4 7.2
2018-Feb-15 20:01N 34°34' E 135°11'611.2
2018-Feb-15 19:31N 34°35' E 135°04'612.1
2018-Feb-15 19:00N 34°37' E 134°57'611.4
2018-Feb-15 18:30N 34°39' E 134°51'4 0.6
2018-Feb-15 11:20N 34°43' E 134°48'2 5.8
2018-Feb-15 11:00N 34°41' E 134°49'1 2.3
2018-Feb-15 10:29N 34°42' E 134°50'0 0.0
2018-Feb-15 10:00N 34°42' E 134°50'0 0.0
2018-Feb-15 09:30N 34°42' E 134°50'0 0.0
2018-Feb-15 09:00N 34°42' E 134°50'0 0.3
2018-Feb-15 08:30N 34°42' E 134°50'5 9.8
2018-Feb-15 08:00N 34°38' E 134°54'511.0
2018-Feb-15 07:30N 34°38' E 135°00'4 9.0
2018-Feb-15 07:00N 34°36' E 135°05'611.3
2018-Feb-15 06:30N 34°37' E 135°12'510.7
2018-Feb-15 06:00N 34°39' E 135°18'3 5.4
2018-Feb-15 05:30N 34°42' E 135°16'0 0.0
2018-Feb-15 05:00N 34°42' E 135°16'0 0.0
2018-Feb-15 04:30N 34°42' E 135°16'0 0.0
2018-Feb-15 04:00N 34°42' E 135°16'0 0.0
2018-Feb-15 03:30N 34°42' E 135°16'0 0.0
2018-Feb-15 03:00N 34°42' E 135°16'0 0.0
2018-Feb-15 02:30N 34°42' E 135°16'0 0.0
2018-Feb-15 02:00N 34°42' E 135°16'0 0.0
2018-Feb-15 01:30N 34°42' E 135°16'0 0.0
2018-Feb-15 01:00N 34°42' E 135°16'0 0.0
2018-Feb-15 00:30N 34°42' E 135°16'0 0.0
2018-Feb-15 00:00N 34°42' E 135°16'0 0.0
2018-Feb-14 23:30N 34°42' E 135°16'0 0.0
2018-Feb-14 23:00N 34°42' E 135°16'0 0.0
2018-Feb-14 22:30N 34°42' E 135°16'0 0.0
2018-Feb-14 22:00N 34°42' E 135°16'0 0.0
2018-Feb-14 21:30N 34°42' E 135°16'0 0.0
2018-Feb-14 21:00N 34°42' E 135°16'0 0.0
2018-Feb-14 20:30N 34°42' E 135°16'0 0.0
2018-Feb-14 20:00N 34°42' E 135°16'0 0.0
2018-Feb-14 19:30N 34°42' E 135°16'0 0.0
2018-Feb-14 19:00N 34°42' E 135°16'1 1.0
2018-Feb-14 18:30N 34°42' E 135°17'4 7.1
2018-Feb-14 18:00N 34°39' E 135°17'611.0
2018-Feb-14 17:30N 34°36' E 135°11'611.8
2018-Feb-14 17:01N 34°35' E 135°04'713.9
2018-Feb-14 16:30N 34°37' E 134°56'612.8
2018-Feb-14 16:00N 34°40' E 134°50'3 0.3
2018-Feb-14 06:39N 34°43' E 134°48'1 7.6
2018-Feb-14 06:30N 34°42' E 134°48'3 5.0
2018-Feb-14 05:59N 34°43' E 134°51'0 0.0
2018-Feb-14 05:30N 34°43' E 134°51'0 0.0
2018-Feb-14 04:59N 34°43' E 134°51'1 1.9
2018-Feb-14 04:28N 34°42' E 134°50'4 9.1
2018-Feb-14 04:00N 34°39' E 134°53'5 9.5
2018-Feb-14 03:30N 34°38' E 134°59'5 9.7
2018-Feb-14 03:00N 34°36' E 135°04'611.2
2018-Feb-14 02:30N 34°37' E 135°11'4 8.8
2018-Feb-14 02:00N 34°40' E 135°15'2 3.9
2018-Feb-14 01:30N 34°42' E 135°15'0 0.0
2018-Feb-14 01:01N 34°42' E 135°15'0 0.0
2018-Feb-14 00:29N 34°42' E 135°15'0 0.0
2018-Feb-14 00:01N 34°42' E 135°15'0 0.0
2018-Feb-13 23:30N 34°42' E 135°15'0 0.0
2018-Feb-13 23:00N 34°42' E 135°15'1 1.4
2018-Feb-13 22:30N 34°42' E 135°15'0 0.0
2018-Feb-13 21:59N 34°42' E 135°15'0 0.0
2018-Feb-13 21:30N 34°42' E 135°15'0 0.0
2018-Feb-13 20:59N 34°42' E 135°15'0 0.0
2018-Feb-13 20:30N 34°42' E 135°15'0 0.0
2018-Feb-13 20:00N 34°42' E 135°15'0 0.0
2018-Feb-13 19:30N 34°42' E 135°15'0 0.0
2018-Feb-13 18:59N 34°42' E 135°15'0 0.0
2018-Feb-13 18:30N 34°42' E 135°15'0 0.0
2018-Feb-13 18:00N 34°42' E 135°15'0 0.0
2018-Feb-13 17:30N 34°42' E 135°15'0 0.0
2018-Feb-13 17:00N 34°42' E 135°15'0 0.0
2018-Feb-13 16:30N 34°42' E 135°15'0 0.0
2018-Feb-13 16:00N 34°42' E 135°15'0 0.0
2018-Feb-13 15:31N 34°42' E 135°15'0 0.4
2018-Feb-13 15:00N 34°41' E 135°15'4 8.0
2018-Feb-13 14:30N 34°37' E 135°14'510.8
2018-Feb-13 14:00N 34°36' E 135°08'510.6
2018-Feb-13 13:30N 34°37' E 135°02'510.8
2018-Feb-13 13:00N 34°37' E 134°55'610.9
2018-Feb-13 12:29N 34°40' E 134°50'  
Track history (hours):
 
Tides and Currents Weather Stations Pressure Air Temp Water Temp Dewpoint Dewpoint Depression Visibility Wind Speed Wind Dir Waves Ship Positions

Shinkyo Maru No.3

Last reported at 2018-Feb-23 11:45 UTC. Time now 2018-Feb-23 12:29 UTC.
Position N 34°43' E 134°51'.

Length 55 m; draft 3 m.

Type: Cargo ship. MMSI: 431003752.

Date/timePositionNaut miles runAvg speedWind from/ knotsBaromVisibWave heightAir tempDewpointWater temp
2018-Feb-23 11:45N 34°43' E 134°51'0 0.0
2018-Feb-23 11:16N 34°43' E 134°51'0 0.0
2018-Feb-23 10:59N 34°43' E 134°51'0 0.0
2018-Feb-23 10:27N 34°43' E 134°51'0 0.0
2018-Feb-23 09:45N 34°43' E 134°51'0 0.0
2018-Feb-23 09:20N 34°43' E 134°51'0 0.0
2018-Feb-23 08:54N 34°43' E 134°51'0 0.0
2018-Feb-23 08:27N 34°43' E 134°51'0 0.0
2018-Feb-23 07:59N 34°43' E 134°51'0 0.0
2018-Feb-23 07:28N 34°43' E 134°51'0 0.0
2018-Feb-23 06:58N 34°43' E 134°51'0 0.0
2018-Feb-23 06:29N 34°43' E 134°51'0 0.0
2018-Feb-23 05:55N 34°43' E 134°51'3 6.3
2018-Feb-23 05:30N 34°40' E 134°50'611.4
2018-Feb-23 05:00N 34°38' E 134°57'612.5
2018-Feb-23 04:30N 34°36' E 135°04'611.2
2018-Feb-23 04:01N 34°37' E 135°11'510.9
2018-Feb-23 03:30N 34°38' E 135°17'510.2
2018-Feb-23 03:01N 34°38' E 135°24'2 3.7
2018-Feb-23 02:30N 34°37' E 135°26'0 0.1
2018-Feb-23 02:01N 34°37' E 135°26'0 0.1
2018-Feb-23 01:31N 34°37' E 135°26'0 0.0
2018-Feb-23 01:01N 34°37' E 135°26'0 0.1
2018-Feb-23 00:30N 34°37' E 135°26'0 0.1
2018-Feb-23 00:00N 34°37' E 135°26'0 0.0
2018-Feb-22 23:30N 34°37' E 135°26'0 0.0
2018-Feb-22 23:00N 34°37' E 135°26'0 0.0
2018-Feb-22 22:31N 34°37' E 135°26'0 0.0
2018-Feb-22 22:00N 34°37' E 135°26'0 0.0
2018-Feb-22 21:31N 34°37' E 135°26'0 0.1
2018-Feb-22 21:01N 34°37' E 135°26'2 4.5
2018-Feb-22 20:30N 34°38' E 135°23'5 9.9
2018-Feb-22 20:01N 34°38' E 135°17'4 8.1
2018-Feb-22 19:30N 34°42' E 135°15'0 0.1
2018-Feb-22 19:00N 34°42' E 135°15'0 0.0
2018-Feb-22 18:31N 34°42' E 135°15'0 0.0
2018-Feb-22 18:00N 34°42' E 135°15'0 0.0
2018-Feb-22 17:30N 34°42' E 135°15'0 0.0
2018-Feb-22 17:00N 34°42' E 135°15'0 0.0
2018-Feb-22 16:31N 34°42' E 135°15'0 0.0
2018-Feb-22 16:01N 34°42' E 135°15'0 0.0
2018-Feb-22 15:30N 34°42' E 135°15'0 0.0
2018-Feb-22 15:00N 34°42' E 135°15'0 0.0
2018-Feb-22 14:31N 34°42' E 135°15'0 0.0
2018-Feb-22 14:01N 34°42' E 135°15'0 0.0
2018-Feb-22 13:30N 34°42' E 135°15'0 0.0
2018-Feb-22 13:00N 34°42' E 135°15'0 0.0
2018-Feb-22 12:30N 34°42' E 135°15'0 0.0
2018-Feb-22 12:01N 34°42' E 135°15'0 0.0
2018-Feb-22 11:31N 34°42' E 135°15'0 0.0
2018-Feb-22 11:01N 34°42' E 135°15'0 0.0
2018-Feb-22 10:31N 34°42' E 135°15'0 0.0
2018-Feb-22 10:01N 34°42' E 135°15'0 0.0
2018-Feb-22 09:31N 34°42' E 135°15'0 0.0
2018-Feb-22 09:01N 34°42' E 135°15'0 0.0
2018-Feb-22 08:31N 34°42' E 135°15'0 0.2
2018-Feb-22 08:00N 34°42' E 135°15'0 0.0
2018-Feb-22 07:30N 34°42' E 135°15'0 0.0
2018-Feb-22 07:01N 34°42' E 135°15'0 0.0
2018-Feb-22 06:30N 34°42' E 135°15'0 0.0
2018-Feb-22 06:01N 34°42' E 135°15'0 0.0
2018-Feb-22 05:30N 34°42' E 135°15'0 0.0
2018-Feb-22 05:00N 34°42' E 135°15'0 0.0
2018-Feb-22 04:31N 34°42' E 135°15'0 0.0
2018-Feb-22 04:01N 34°42' E 135°15'0 0.0
2018-Feb-22 03:30N 34°42' E 135°15'0 0.0
2018-Feb-22 03:00N 34°42' E 135°15'0 0.0
2018-Feb-22 02:30N 34°42' E 135°15'0 0.0
2018-Feb-22 02:00N 34°42' E 135°15'0 0.0
2018-Feb-22 01:31N 34°42' E 135°15'0 0.0
2018-Feb-22 01:00N 34°42' E 135°15'0 0.0
2018-Feb-22 00:31N 34°42' E 135°15'0 0.0
2018-Feb-22 00:00N 34°42' E 135°15'0 0.0
2018-Feb-21 23:30N 34°42' E 135°15'0 0.5
2018-Feb-21 23:00N 34°42' E 135°15'1 1.7
2018-Feb-21 22:31N 34°41' E 135°15'0 0.0
2018-Feb-21 22:01N 34°41' E 135°15'0 0.0
2018-Feb-21 21:31N 34°41' E 135°15'0 0.1
2018-Feb-21 20:59N 34°41' E 135°15'3 5.3
2018-Feb-21 20:30N 34°39' E 135°16'5 9.8
2018-Feb-21 20:00N 34°36' E 135°11'510.4
2018-Feb-21 19:30N 34°35' E 135°04'611.8
2018-Feb-21 19:00N 34°37' E 134°58'611.0
2018-Feb-21 18:30N 34°39' E 134°51'5 1.1
2018-Feb-21 13:27N 34°44' E 134°49'2 4.2
2018-Feb-21 13:00N 34°42' E 134°48'1 2.9
2018-Feb-21 12:30N 34°42' E 134°50'0 0.0
2018-Feb-21 11:58N 34°42' E 134°50'0 0.0
2018-Feb-21 11:29N 34°42' E 134°50'0 0.6
2018-Feb-21 11:00N 34°42' E 134°50'5 9.4
2018-Feb-21 10:30N 34°38' E 134°53'510.7
2018-Feb-21 10:00N 34°38' E 134°60'4 8.7
2018-Feb-21 09:30N 34°36' E 135°05'611.6
2018-Feb-21 09:01N 34°37' E 135°12'611.7
2018-Feb-21 08:30N 34°38' E 135°19'611.1
2018-Feb-21 08:00N 34°37' E 135°25'0 1.0
2018-Feb-21 07:30N 34°37' E 135°26'0 0.0
2018-Feb-21 07:00N 34°37' E 135°26'0 0.0
2018-Feb-21 06:30N 34°37' E 135°26'0 0.0
2018-Feb-21 06:01N 34°37' E 135°26'0 0.0
2018-Feb-21 05:30N 34°37' E 135°26'0 0.0
2018-Feb-21 05:01N 34°37' E 135°26'0 0.0
2018-Feb-21 04:31N 34°37' E 135°26'0 0.0
2018-Feb-21 04:01N 34°37' E 135°26'0 0.0
2018-Feb-21 03:31N 34°37' E 135°26'0 0.0
2018-Feb-21 03:01N 34°37' E 135°26'0 0.0
2018-Feb-21 02:30N 34°37' E 135°26'0 0.0
2018-Feb-21 02:01N 34°37' E 135°26'0 0.0
2018-Feb-21 01:31N 34°37' E 135°26'0 0.0
2018-Feb-21 01:01N 34°37' E 135°26'0 0.0
2018-Feb-21 00:30N 34°37' E 135°26'0 0.1
2018-Feb-21 00:00N 34°37' E 135°26'0 0.1
2018-Feb-20 23:30N 34°37' E 135°26'0 0.0
2018-Feb-20 23:01N 34°37' E 135°26'0 0.0
2018-Feb-20 22:31N 34°37' E 135°26'0 0.0
2018-Feb-20 22:00N 34°37' E 135°26'0 0.1
2018-Feb-20 21:31N 34°37' E 135°26'0 0.1
2018-Feb-20 21:00N 34°37' E 135°26'0 0.0
2018-Feb-20 20:31N 34°37' E 135°26'0 0.0
2018-Feb-20 20:01N 34°37' E 135°26'0 0.0
2018-Feb-20 19:31N 34°37' E 135°26'0 0.0
2018-Feb-20 19:00N 34°37' E 135°26'0 0.0
2018-Feb-20 18:31N 34°37' E 135°26'0 0.0
2018-Feb-20 18:00N 34°37' E 135°26'1 1.9
2018-Feb-20 17:30N 34°37' E 135°25'510.7
2018-Feb-20 17:00N 34°40' E 135°19'4 7.4
2018-Feb-20 16:31N 34°42' E 135°15'0 0.1
2018-Feb-20 16:00N 34°42' E 135°15'0 0.0
2018-Feb-20 15:30N 34°42' E 135°15'0 0.0
2018-Feb-20 15:01N 34°42' E 135°15'0 0.0
2018-Feb-20 14:30N 34°42' E 135°15'0 0.0
2018-Feb-20 14:00N 34°42' E 135°15'0 0.0
2018-Feb-20 13:30N 34°42' E 135°15'0 0.0
2018-Feb-20 13:01N 34°42' E 135°15'0 0.4
2018-Feb-20 12:30N 34°42' E 135°15'0 0.0
2018-Feb-20 12:00N 34°42' E 135°15'0 0.0
2018-Feb-20 11:30N 34°42' E 135°15'0 0.0
2018-Feb-20 11:00N 34°42' E 135°15'0 0.0
2018-Feb-20 10:31N 34°42' E 135°15'0 0.1
2018-Feb-20 10:01N 34°42' E 135°15'0 0.1
2018-Feb-20 09:31N 34°42' E 135°15'0 0.0
2018-Feb-20 09:00N 34°42' E 135°15'0 0.0
2018-Feb-20 08:31N 34°42' E 135°15'0 0.0
2018-Feb-20 08:00N 34°42' E 135°15'0 0.0
2018-Feb-20 07:30N 34°42' E 135°15'0 0.0
2018-Feb-20 07:01N 34°42' E 135°15'0 0.0
2018-Feb-20 06:31N 34°42' E 135°15'0 0.0
2018-Feb-20 06:00N 34°42' E 135°15'0 0.0
2018-Feb-20 05:30N 34°42' E 135°15'0 0.0
2018-Feb-20 05:01N 34°42' E 135°15'0 0.0
2018-Feb-20 04:30N 34°42' E 135°15'0 0.0
2018-Feb-20 04:01N 34°42' E 135°15'0 0.0
2018-Feb-20 03:30N 34°42' E 135°15'0 0.0
2018-Feb-20 03:00N 34°42' E 135°15'0 0.0
2018-Feb-20 02:31N 34°42' E 135°15'0 0.0
2018-Feb-20 02:00N 34°42' E 135°15'0 0.0
2018-Feb-20 01:30N 34°42' E 135°15'0 0.0
2018-Feb-20 01:00N 34°42' E 135°15'0 0.0
2018-Feb-20 00:31N 34°42' E 135°15'0 0.0
2018-Feb-20 00:01N 34°42' E 135°15'0 0.4
2018-Feb-19 23:31N 34°42' E 135°15'4 8.5
2018-Feb-19 23:00N 34°38' E 135°15'510.5
2018-Feb-19 22:30N 34°36' E 135°09'611.0
2018-Feb-19 22:00N 34°36' E 135°02'611.6
2018-Feb-19 21:31N 34°37' E 134°55'611.5
2018-Feb-19 21:00N 34°40' E 134°49'3 0.6
2018-Feb-19 15:22N 34°44' E 134°49'1 3.7
2018-Feb-19 15:00N 34°42' E 134°48'3 2.6
2018-Feb-19 14:01N 34°43' E 134°51'0 0.0
2018-Feb-19 13:59N 34°43' E 134°51'0 0.0
2018-Feb-19 13:30N 34°43' E 134°51'0 0.0
2018-Feb-19 13:00N 34°43' E 134°51'0 0.0
2018-Feb-19 12:27N 34°43' E 134°51'0 0.0
2018-Feb-19 11:58N 34°43' E 134°51'0 0.0
2018-Feb-19 11:30N 34°43' E 134°51'0 0.0
2018-Feb-19 10:59N 34°43' E 134°51'0 0.0
2018-Feb-19 10:30N 34°43' E 134°51'0 0.0
2018-Feb-19 10:00N 34°43' E 134°51'0 0.0
2018-Feb-19 09:29N 34°43' E 134°51'0 0.0
2018-Feb-19 09:00N 34°43' E 134°51'0 0.0
2018-Feb-19 08:20N 34°43' E 134°51'0 0.0
2018-Feb-19 07:59N 34°43' E 134°51'0 0.0
2018-Feb-19 07:30N 34°43' E 134°51'0 0.0
2018-Feb-19 06:59N 34°43' E 134°51'0 0.0
2018-Feb-19 06:30N 34°43' E 134°51'0 0.0
2018-Feb-19 06:00N 34°43' E 134°51'3 6.2
2018-Feb-19 05:30N 34°39' E 134°51'5 9.5
2018-Feb-19 05:00N 34°38' E 134°57'611.4
2018-Feb-19 04:31N 34°36' E 135°03'611.5
2018-Feb-19 04:01N 34°37' E 135°10'612.0
2018-Feb-19 03:31N 34°38' E 135°18'611.7
2018-Feb-19 03:01N 34°41' E 135°23'1 1.7
2018-Feb-19 02:30N 34°42' E 135°24'0 0.0
2018-Feb-19 02:00N 34°42' E 135°24'0 0.0
2018-Feb-19 01:30N 34°42' E 135°24'0 0.0
2018-Feb-19 01:01N 34°42' E 135°24'0 0.0
2018-Feb-19 00:31N 34°42' E 135°24'0 0.0
2018-Feb-19 00:01N 34°42' E 135°24'0 0.0
2018-Feb-18 23:30N 34°42' E 135°24'0 0.0
2018-Feb-18 23:00N 34°42' E 135°24'0 0.0
2018-Feb-18 22:31N 34°42' E 135°24'0 0.9
2018-Feb-18 22:01N 34°42' E 135°24'4 8.2
2018-Feb-18 21:30N 34°39' E 135°20'510.5
2018-Feb-18 21:00N 34°37' E 135°14'510.7
2018-Feb-18 20:30N 34°36' E 135°08'612.0
2018-Feb-18 20:00N 34°37' E 135°01'612.6
2018-Feb-18 19:30N 34°38' E 134°53'611.6
2018-Feb-18 19:00N 34°42' E 134°48'1 0.1
2018-Feb-18 12:14N 34°43' E 134°48'2 8.7
2018-Feb-18 12:01N 34°41' E 134°49'3 5.3
2018-Feb-18 11:30N 34°43' E 134°51'0 0.0
2018-Feb-18 11:00N 34°43' E 134°51'0 0.0
2018-Feb-18 10:30N 34°43' E 134°51'0 0.0
2018-Feb-18 10:00N 34°43' E 134°51'0 0.0
2018-Feb-18 09:27N 34°43' E 134°51'0 0.0
2018-Feb-18 09:00N 34°43' E 134°51'0 0.0
2018-Feb-18 08:30N 34°43' E 134°51'0 0.0
2018-Feb-18 08:00N 34°43' E 134°51'0 0.0
2018-Feb-18 07:30N 34°43' E 134°51'0 0.0
2018-Feb-18 07:00N 34°43' E 134°51'0 0.0
2018-Feb-18 06:29N 34°43' E 134°51'0 0.0
2018-Feb-18 06:00N 34°43' E 134°51'0 0.0
2018-Feb-18 05:30N 34°43' E 134°51'0 0.0
2018-Feb-18 05:00N 34°43' E 134°51'0 0.0
2018-Feb-18 04:30N 34°43' E 134°51'0 0.0
2018-Feb-18 03:57N 34°43' E 134°51'0 0.6
2018-Feb-18 03:31N 34°43' E 134°51'4 7.6
2018-Feb-18 03:00N 34°39' E 134°52'612.6
2018-Feb-18 02:31N 34°38' E 134°60'612.2
2018-Feb-18 02:01N 34°37' E 135°07'612.1
2018-Feb-18 01:31N 34°39' E 135°14'4 7.3
2018-Feb-18 01:01N 34°42' E 135°15'0 0.0
2018-Feb-18 00:31N 34°42' E 135°15'0 0.0
2018-Feb-18 00:01N 34°42' E 135°15'0 0.0
2018-Feb-17 23:30N 34°42' E 135°15'0 0.0
2018-Feb-17 22:59N 34°42' E 135°15'0 0.1
2018-Feb-17 22:30N 34°42' E 135°15'2 4.1
2018-Feb-17 22:00N 34°42' E 135°13'0 0.0
2018-Feb-17 21:30N 34°42' E 135°13'0 0.0
2018-Feb-17 20:59N 34°42' E 135°13'0 0.0
2018-Feb-17 20:30N 34°42' E 135°13'0 0.0
2018-Feb-17 20:01N 34°42' E 135°13'0 0.0
2018-Feb-17 19:31N 34°42' E 135°13'0 0.0
2018-Feb-17 19:00N 34°42' E 135°13'0 0.0
2018-Feb-17 18:30N 34°42' E 135°13'0 0.0
2018-Feb-17 18:01N 34°41' E 135°13'0 0.0
2018-Feb-17 17:31N 34°42' E 135°13'0 0.0
2018-Feb-17 17:00N 34°42' E 135°13'0 0.0
2018-Feb-17 16:31N 34°42' E 135°13'0 0.0
2018-Feb-17 16:00N 34°42' E 135°13'0 0.0
2018-Feb-17 15:30N 34°42' E 135°13'0 0.0
2018-Feb-17 15:00N 34°42' E 135°13'0 0.0
2018-Feb-17 14:30N 34°42' E 135°13'0 0.0
2018-Feb-17 14:01N 34°42' E 135°13'0 0.0
2018-Feb-17 13:31N 34°42' E 135°13'0 0.0
2018-Feb-17 13:00N 34°42' E 135°13'0 0.0
2018-Feb-17 12:30N 34°42' E 135°13'0 0.0
2018-Feb-17 12:01N 34°42' E 135°13'0 0.0
2018-Feb-17 11:31N 34°42' E 135°13'0 0.0
2018-Feb-17 11:00N 34°42' E 135°13'0 0.0
2018-Feb-17 10:31N 34°42' E 135°13'0 0.0
2018-Feb-17 10:01N 34°42' E 135°13'0 0.0
2018-Feb-17 09:30N 34°42' E 135°13'0 0.0
2018-Feb-17 09:01N 34°42' E 135°13'0 0.0
2018-Feb-17 08:30N 34°42' E 135°13'0 0.0
2018-Feb-17 08:01N 34°42' E 135°13'0 0.0
2018-Feb-17 07:31N 34°42' E 135°13'0 0.0
2018-Feb-17 07:01N 34°42' E 135°13'0 0.0
2018-Feb-17 06:31N 34°42' E 135°13'0 0.0
2018-Feb-17 06:01N 34°42' E 135°13'0 0.0
2018-Feb-17 05:31N 34°42' E 135°13'0 0.0
2018-Feb-17 05:01N 34°42' E 135°13'0 0.0
2018-Feb-17 04:30N 34°42' E 135°13'0 0.0
2018-Feb-17 04:01N 34°42' E 135°13'0 0.0
2018-Feb-17 03:30N 34°42' E 135°13'0 0.0
2018-Feb-17 03:01N 34°42' E 135°13'0 0.0
2018-Feb-17 02:30N 34°42' E 135°13'0 0.0
2018-Feb-17 02:01N 34°42' E 135°13'0 0.0
2018-Feb-17 01:30N 34°42' E 135°13'0 0.0
2018-Feb-17 01:00N 34°42' E 135°13'0 0.0
2018-Feb-17 00:30N 34°42' E 135°13'2 4.3
2018-Feb-17 00:01N 34°40' E 135°15'3 6.1
2018-Feb-16 23:31N 34°40' E 135°11'1 2.9
2018-Feb-16 23:01N 34°38' E 135°11'3 5.5
2018-Feb-16 22:30N 34°36' E 135°08'4 8.9
2018-Feb-16 22:01N 34°36' E 135°03'4 8.4
2018-Feb-16 21:30N 34°37' E 134°58'5 9.8
2018-Feb-16 21:01N 34°38' E 134°52'6 2.1
2018-Feb-16 18:20N 34°43' E 134°48'2 6.0
2018-Feb-16 18:01N 34°41' E 134°49'2 4.2
2018-Feb-16 17:31N 34°43' E 134°51'0 0.0
2018-Feb-16 17:01N 34°43' E 134°51'0 0.0
2018-Feb-16 16:30N 34°43' E 134°51'0 0.0
2018-Feb-16 15:59N 34°43' E 134°51'0 0.0
2018-Feb-16 15:28N 34°43' E 134°51'0 0.0
2018-Feb-16 15:00N 34°43' E 134°51'0 0.0
2018-Feb-16 14:31N 34°43' E 134°51'0 0.0
2018-Feb-16 14:00N 34°43' E 134°51'0 0.0
2018-Feb-16 13:30N 34°43' E 134°51'0 0.0
2018-Feb-16 12:57N 34°43' E 134°51'0 0.0
2018-Feb-16 12:28N 34°43' E 134°51'0 0.0
2018-Feb-16 12:01N 34°43' E 134°51'0 0.0
2018-Feb-16 11:27N 34°43' E 134°51'0 0.0
2018-Feb-16 10:59N 34°43' E 134°51'0 0.0
2018-Feb-16 10:30N 34°43' E 134°51'0 0.0
2018-Feb-16 09:59N 34°43' E 134°51'0 0.0
2018-Feb-16 09:30N 34°43' E 134°51'0 0.0
2018-Feb-16 09:01N 34°43' E 134°51'2 4.0
2018-Feb-16 08:30N 34°41' E 134°50'510.6
2018-Feb-16 08:00N 34°38' E 134°55'510.6
2018-Feb-16 07:30N 34°37' E 135°02'510.3
2018-Feb-16 07:00N 34°36' E 135°08'611.2
2018-Feb-16 06:30N 34°34' E 135°14'611.3
2018-Feb-16 06:00N 34°33' E 135°21'4 7.6
2018-Feb-16 05:31N 34°31' E 135°25'0 0.0
2018-Feb-15 22:16N 34°31' E 135°25'0 0.1
2018-Feb-15 22:00N 34°31' E 135°25'2 4.8
2018-Feb-15 21:31N 34°33' E 135°23'3 6.0
2018-Feb-15 21:01N 34°33' E 135°19'3 6.3
2018-Feb-15 20:31N 34°34' E 135°15'4 7.2
2018-Feb-15 20:01N 34°34' E 135°11'611.2
2018-Feb-15 19:31N 34°35' E 135°04'612.1
2018-Feb-15 19:00N 34°37' E 134°57'611.4
2018-Feb-15 18:30N 34°39' E 134°51'4 0.6
2018-Feb-15 11:20N 34°43' E 134°48'2 5.8
2018-Feb-15 11:00N 34°41' E 134°49'1 2.3
2018-Feb-15 10:29N 34°42' E 134°50'0 0.0
2018-Feb-15 10:00N 34°42' E 134°50'0 0.0
2018-Feb-15 09:30N 34°42' E 134°50'0 0.0
2018-Feb-15 09:00N 34°42' E 134°50'0 0.3
2018-Feb-15 08:30N 34°42' E 134°50'5 9.8
2018-Feb-15 08:00N 34°38' E 134°54'511.0
2018-Feb-15 07:30N 34°38' E 135°00'4 9.0
2018-Feb-15 07:00N 34°36' E 135°05'611.3
2018-Feb-15 06:30N 34°37' E 135°12'510.7
2018-Feb-15 06:00N 34°39' E 135°18'3 5.4
2018-Feb-15 05:30N 34°42' E 135°16'0 0.0
2018-Feb-15 05:00N 34°42' E 135°16'0 0.0
2018-Feb-15 04:30N 34°42' E 135°16'0 0.0
2018-Feb-15 04:00N 34°42' E 135°16'0 0.0
2018-Feb-15 03:30N 34°42' E 135°16'0 0.0
2018-Feb-15 03:00N 34°42' E 135°16'0 0.0
2018-Feb-15 02:30N 34°42' E 135°16'0 0.0
2018-Feb-15 02:00N 34°42' E 135°16'0 0.0
2018-Feb-15 01:30N 34°42' E 135°16'0 0.0
2018-Feb-15 01:00N 34°42' E 135°16'0 0.0
2018-Feb-15 00:30N 34°42' E 135°16'0 0.0
2018-Feb-15 00:00N 34°42' E 135°16'0 0.0
2018-Feb-14 23:30N 34°42' E 135°16'0 0.0
2018-Feb-14 23:00N 34°42' E 135°16'0 0.0
2018-Feb-14 22:30N 34°42' E 135°16'0 0.0
2018-Feb-14 22:00N 34°42' E 135°16'0 0.0
2018-Feb-14 21:30N 34°42' E 135°16'0 0.0
2018-Feb-14 21:00N 34°42' E 135°16'0 0.0
2018-Feb-14 20:30N 34°42' E 135°16'0 0.0
2018-Feb-14 20:00N 34°42' E 135°16'0 0.0
2018-Feb-14 19:30N 34°42' E 135°16'0 0.0
2018-Feb-14 19:00N 34°42' E 135°16'1 1.0
2018-Feb-14 18:30N 34°42' E 135°17'4 7.1
2018-Feb-14 18:00N 34°39' E 135°17'611.0
2018-Feb-14 17:30N 34°36' E 135°11'611.8
2018-Feb-14 17:01N 34°35' E 135°04'713.9
2018-Feb-14 16:30N 34°37' E 134°56'612.8
2018-Feb-14 16:00N 34°40' E 134°50'3 0.3
2018-Feb-14 06:39N 34°43' E 134°48'1 7.6
2018-Feb-14 06:30N 34°42' E 134°48'3 5.0
2018-Feb-14 05:59N 34°43' E 134°51'0 0.0
2018-Feb-14 05:30N 34°43' E 134°51'0 0.0
2018-Feb-14 04:59N 34°43' E 134°51'1 1.9
2018-Feb-14 04:28N 34°42' E 134°50'4 9.1
2018-Feb-14 04:00N 34°39' E 134°53'5 9.5
2018-Feb-14 03:30N 34°38' E 134°59'5 9.7
2018-Feb-14 03:00N 34°36' E 135°04'611.2
2018-Feb-14 02:30N 34°37' E 135°11'4 8.8
2018-Feb-14 02:00N 34°40' E 135°15'2 3.9
2018-Feb-14 01:30N 34°42' E 135°15'0 0.0
2018-Feb-14 01:01N 34°42' E 135°15'0 0.0
2018-Feb-14 00:29N 34°42' E 135°15'0 0.0
2018-Feb-14 00:01N 34°42' E 135°15'0 0.0
2018-Feb-13 23:30N 34°42' E 135°15'0 0.0
2018-Feb-13 23:00N 34°42' E 135°15'1 1.4
2018-Feb-13 22:30N 34°42' E 135°15'0 0.0
2018-Feb-13 21:59N 34°42' E 135°15'0 0.0
2018-Feb-13 21:30N 34°42' E 135°15'0 0.0
2018-Feb-13 20:59N 34°42' E 135°15'0 0.0
2018-Feb-13 20:30N 34°42' E 135°15'0 0.0
2018-Feb-13 20:00N 34°42' E 135°15'0 0.0
2018-Feb-13 19:30N 34°42' E 135°15'0 0.0
2018-Feb-13 18:59N 34°42' E 135°15'0 0.0
2018-Feb-13 18:30N 34°42' E 135°15'0 0.0
2018-Feb-13 18:00N 34°42' E 135°15'0 0.0
2018-Feb-13 17:30N 34°42' E 135°15'0 0.0
2018-Feb-13 17:00N 34°42' E 135°15'0 0.0
2018-Feb-13 16:30N 34°42' E 135°15'0 0.0
2018-Feb-13 16:00N 34°42' E 135°15'0 0.0
2018-Feb-13 15:31N 34°42' E 135°15'0 0.4
2018-Feb-13 15:00N 34°41' E 135°15'4 8.0
2018-Feb-13 14:30N 34°37' E 135°14'510.8
2018-Feb-13 14:00N 34°36' E 135°08'510.6
2018-Feb-13 13:30N 34°37' E 135°02'510.8
2018-Feb-13 13:00N 34°37' E 134°55'610.9
2018-Feb-13 12:29N 34°40' E 134°50'  

Dump ship's entire track history